Time;durP1;ratioP1;P1;durP2;ratioP2;P2;SDS_P1;SDS_P2;PMS_P1;PMS_P2;Temp;Humidity;BMP_temperature;BMP_pressure;BME280_temperature;BME280_humidity;BME280_pressure;Samples;Min_cycle;Max_cycle;Signal;HPM_P1;HPM_P2
2023/06/19 08:57:14;;;;;;;9.73;7.10;;;;;;;20.91;92.05;101061.09;5069479;28;20379;-73
2023/06/19 08:59:48;;;;;;;10.57;6.90;;;;;;;21.10;94.66;101068.59;5068660;28;20074;-72
2023/06/19 09:02:13;;;;;;;7.82;6.65;;;;;;;21.14;88.45;101069.69;5066899;28;20052;-73
2023/06/19 09:04:38;;;;;;;8.75;6.93;;;;;;;21.16;90.16;101071.00;5068552;28;20066;-73
2023/06/19 09:07:04;;;;;;;9.00;6.20;;;;;;;21.25;92.75;101079.44;5067957;28;20044;-73
2023/06/19 09:09:30;;;;;;;12.65;6.75;;;;;;;21.34;98.69;101068.63;5069285;28;20029;-73
2023/06/19 09:12:03;;;;;;;8.50;6.20;;;;;;;21.30;93.05;101079.38;5069163;28;20131;-73
2023/06/19 09:14:32;;;;;;;9.18;6.22;;;;;;;21.30;89.29;101078.56;5069454;28;20116;-73
2023/06/19 09:16:57;;;;;;;9.27;5.80;;;;;;;21.32;90.48;101074.44;5067895;28;20060;-73
2023/06/19 09:19:22;;;;;;;9.40;5.75;;;;;;;21.42;84.54;101077.06;5069806;28;20133;-73
2023/06/19 09:21:48;;;;;;;9.27;6.43;;;;;;;21.52;78.25;101080.84;5069524;28;20028;-72
2023/06/19 09:24:13;;;;;;;12.30;6.43;;;;;;;21.56;75.73;101090.97;5069317;28;20574;-73
2023/06/19 09:26:38;;;;;;;8.40;6.32;;;;;;;21.54;75.59;101090.47;5069691;28;20104;-73
2023/06/19 09:29:15;;;;;;;10.18;6.78;;;;;;;21.62;77.43;101094.50;5069163;28;20024;-73
2023/06/19 09:31:41;;;;;;;8.00;5.82;;;;;;;21.70;78.58;101091.09;5069246;28;20111;-73
2023/06/19 09:34:08;;;;;;;7.60;6.78;;;;;;;21.61;70.95;101101.09;5068667;28;20155;-72
2023/06/19 09:36:34;;;;;;;9.27;6.30;;;;;;;21.66;74.83;101106.53;5069040;28;20492;-73
2023/06/19 09:39:02;;;;;;;11.68;6.53;;;;;;;21.67;71.70;101101.88;5068940;28;20127;-73
2023/06/19 09:41:29;;;;;;;8.80;6.65;;;;;;;21.79;73.66;101095.94;5068820;28;20032;-73
2023/06/19 09:43:59;;;;;;;10.10;6.45;;;;;;;21.86;71.27;101104.66;5067464;28;20032;-73
2023/06/19 09:46:36;;;;;;;13.77;6.50;;;;;;;21.82;69.89;101106.38;5067440;28;20071;-73
2023/06/19 09:49:04;;;;;;;8.32;6.32;;;;;;;21.77;68.22;101118.28;5067353;28;20056;-72
2023/06/19 09:51:41;;;;;;;10.40;6.70;;;;;;;21.83;70.22;101099.75;5067496;28;20090;-73
2023/06/19 09:54:09;;;;;;;10.10;6.88;;;;;;;21.80;66.87;101097.56;5068270;28;20464;-72
2023/06/19 09:56:35;;;;;;;6.50;5.90;;;;;;;21.91;68.31;101099.09;5067163;28;20083;-73
2023/06/19 09:59:02;;;;;;;8.80;5.72;;;;;;;21.97;66.27;101108.94;5068448;28;20377;-73
2023/06/19 10:01:30;;;;;;;9.38;6.70;;;;;;;22.04;69.07;101105.78;5064545;28;20021;-72
2023/06/19 10:04:07;;;;;;;10.82;7.43;;;;;;;21.90;69.37;101097.44;5068345;28;20472;-73
2023/06/19 10:06:33;;;;;;;9.43;6.70;;;;;;;22.04;70.35;101103.88;5066180;28;20028;-73
2023/06/19 10:09:09;;;;;;;7.93;6.88;;;;;;;22.12;68.18;101111.47;5054701;28;20469;-73
2023/06/19 10:11:51;;;;;;;11.80;6.10;;;;;;;22.29;68.04;101104.63;5055304;28;20028;-73
2023/06/19 10:14:18;;;;;;;;;;;;;;;22.41;65.73;101107.78;5055380;28;20028;-74
2023/06/19 10:16:43;;;;;;;9.50;6.70;;;;;;;22.30;63.27;101111.78;5055026;28;19912;-72
2023/06/19 10:19:17;;;;;;;9.13;6.80;;;;;;;22.21;63.59;101113.56;5054931;28;20029;-72
2023/06/19 10:21:47;;;;;;;11.15;7.30;;;;;;;22.07;65.66;101114.31;5055051;28;20036;-73
2023/06/19 10:24:19;;;;;;;10.23;6.33;;;;;;;22.18;65.96;101108.63;5054856;28;20029;-72
2023/06/19 10:26:59;;;;;;;9.45;6.20;;;;;;;22.26;65.69;101106.03;5053512;28;20166;-73
2023/06/19 10:29:25;;;;;;;10.40;7.30;;;;;;;22.30;64.01;101107.09;5054498;28;20053;-73
2023/06/19 10:31:50;;;;;;;7.82;6.35;;;;;;;22.37;63.76;101115.00;5054579;28;20025;-73
2023/06/19 10:34:16;;;;;;;9.98;6.53;;;;;;;22.51;64.81;101112.34;5054526;28;20456;-72
2023/06/19 10:36:41;;;;;;;8.68;6.00;;;;;;;22.67;63.44;101126.69;5053424;28;20091;-73
2023/06/19 10:39:07;;;;;;;8.05;6.15;;;;;;;22.81;62.62;101118.47;5053220;28;20029;-72
2023/06/19 10:41:32;;;;;;;9.80;5.55;;;;;;;22.92;61.96;101108.91;5054732;28;20055;-72
2023/06/19 10:44:03;;;;;;;7.13;5.50;;;;;;;22.96;59.74;101107.19;5054671;28;20028;-72
2023/06/19 10:46:38;;;;;;;;;;;;;;;23.11;60.87;101119.09;5054790;28;20450;-72
2023/06/19 10:49:05;;;;;;;5.90;5.03;;;;;;;23.03;59.19;101114.25;5054410;28;19909;-72
2023/06/19 10:51:34;;;;;;;6.32;5.45;;;;;;;22.82;58.02;101114.59;5054586;28;20032;-72
2023/06/19 10:54:00;;;;;;;13.40;5.65;;;;;;;22.80;57.26;101108.56;5053223;28;20112;-72
2023/06/19 10:56:25;;;;;;;8.77;5.18;;;;;;;22.86;57.02;101109.28;5053873;28;20052;-72
2023/06/19 10:59:05;;;;;;;8.23;5.40;;;;;;;22.95;58.42;101102.78;5054354;28;20456;-72
2023/06/19 11:01:33;;;;;;;7.88;5.50;;;;;;;22.83;57.48;101110.72;5051892;28;20063;-73
2023/06/19 11:03:58;;;;;;;7.10;6.15;;;;;;;22.82;58.70;101107.13;5054388;28;20260;-71
2023/06/19 11:06:24;;;;;;;6.00;5.40;;;;;;;22.89;58.92;101104.00;5054099;28;20189;-72
2023/06/19 11:08:52;;;;;;;7.85;5.88;;;;;;;23.15;61.38;101095.28;5054207;28;20036;-72
2023/06/19 11:11:17;;;;;;;8.95;6.53;;;;;;;23.20;58.37;101088.84;5052658;28;20029;-72
2023/06/19 11:13:43;;;;;;;9.13;6.10;;;;;;;23.36;59.12;101090.19;5054096;28;20372;-72
2023/06/19 11:16:08;;;;;;;11.98;6.68;;;;;;;23.31;55.68;101095.81;5053757;28;20059;-72
2023/06/19 11:18:33;;;;;;;6.88;6.18;;;;;;;23.40;56.40;101088.47;5052945;28;20032;-72
2023/06/19 11:21:00;;;;;;;10.30;6.03;;;;;;;23.53;56.94;101089.59;5053870;28;20037;-72
2023/06/19 11:23:30;;;;;;;7.45;5.53;;;;;;;23.64;55.65;101093.78;5053744;28;20033;-72
2023/06/19 11:26:03;;;;;;;7.97;5.68;;;;;;;23.85;57.46;101096.97;5053832;28;20033;-72
2023/06/19 11:28:29;;;;;;;8.75;5.97;;;;;;;23.84;53.08;101081.47;5053795;28;20029;-72
2023/06/19 11:30:59;;;;;;;10.05;5.70;;;;;;;24.04;53.38;101090.50;5053771;28;20170;-72
2023/06/19 11:33:24;;;;;;;7.03;5.82;;;;;;;23.98;52.47;101097.25;5053441;28;20491;-72
2023/06/19 11:35:51;;;;;;;8.70;5.90;;;;;;;23.85;51.87;101085.91;5053630;28;20025;-72
2023/06/19 11:38:24;;;;;;;8.25;5.60;;;;;;;24.06;52.92;101093.75;5053413;28;20102;-72
2023/06/19 11:40:50;;;;;;;9.30;5.20;;;;;;;23.97;50.30;101090.09;5053676;28;20063;-72
2023/06/19 11:43:30;;;;;;;10.90;5.80;;;;;;;23.95;51.00;101084.06;5053423;28;20476;-72
2023/06/19 11:46:06;;;;;;;6.93;5.85;;;;;;;24.10;51.47;101082.91;5053457;28;20029;-72
2023/06/19 11:48:32;;;;;;;8.52;5.60;;;;;;;24.18;51.66;101079.38;5053198;28;20472;-72
2023/06/19 11:50:58;;;;;;;7.18;5.30;;;;;;;24.37;52.26;101073.69;5053650;28;20040;-73
2023/06/19 11:53:24;;;;;;;5.75;5.07;;;;;;;24.33;49.17;101075.44;5051800;28;20475;-72
2023/06/19 11:55:50;;;;;;;8.75;6.00;;;;;;;24.20;49.26;101079.88;5053213;28;20044;-72
2023/06/19 11:58:16;;;;;;;7.93;5.85;;;;;;;24.25;49.26;101074.25;5053114;28;20025;-72
2023/06/19 12:00:42;;;;;;;12.20;5.82;;;;;;;24.24;48.98;101078.94;5049388;28;20036;-72
2023/06/19 12:03:08;;;;;;;6.70;5.07;;;;;;;24.19;48.26;101065.25;5053030;28;20484;-72
2023/06/19 12:05:33;;;;;;;6.43;4.82;;;;;;;24.45;48.68;101053.56;5053074;28;20035;-71
2023/06/19 12:08:02;;;;;;;7.57;5.32;;;;;;;24.45;49.20;101066.59;5051751;28;20394;-72
2023/06/19 12:10:27;;;;;;;6.05;5.10;;;;;;;24.49;47.79;101068.41;5052812;28;20056;-72
2023/06/19 12:12:52;;;;;;;8.55;5.10;;;;;;;24.47;47.78;101069.84;5053004;28;20474;-72
2023/06/19 12:15:18;;;;;;;7.05;5.18;;;;;;;24.66;46.39;101072.47;5052624;28;20029;-72
2023/06/19 12:17:43;;;;;;;7.00;4.82;;;;;;;25.02;46.60;101075.13;5052943;28;20103;-72
2023/06/19 12:20:09;;;;;;;11.33;4.30;;;;;;;25.13;45.79;101083.97;5052652;28;20025;-72
2023/06/19 12:22:34;;;;;;;5.80;5.00;;;;;;;24.93;46.22;101082.56;5052637;28;20342;-72
2023/06/19 12:25:00;;;;;;;6.05;5.10;;;;;;;24.78;47.13;101092.09;5052517;28;20075;-72
2023/06/19 12:27:25;;;;;;;7.35;5.13;;;;;;;24.59;47.60;101084.81;5052512;28;20036;-72
2023/06/19 12:29:50;;;;;;;8.60;5.20;;;;;;;24.68;48.06;101075.72;5052241;28;20112;-72
2023/06/19 12:32:15;;;;;;;7.60;5.18;;;;;;;24.93;47.46;101082.56;5052415;28;20266;-72
2023/06/19 12:34:46;;;;;;;9.40;5.88;;;;;;;24.99;46.57;101081.31;5053020;28;20060;-72
2023/06/19 12:37:13;;;;;;;11.75;5.85;;;;;;;25.13;46.40;101083.97;5052343;28;20068;-73
2023/06/19 12:39:38;;;;;;;9.38;5.80;;;;;;;25.15;46.43;101084.47;5052679;28;20088;-72
2023/06/19 12:42:03;;;;;;;11.70;5.47;;;;;;;25.40;46.51;101079.41;5051356;28;20499;-72
2023/06/19 12:44:29;;;;;;;8.50;5.25;;;;;;;25.52;44.83;101076.03;5052344;28;20298;-73
2023/06/19 12:46:54;;;;;;;9.18;4.55;;;;;;;25.73;45.30;101082.59;5052523;28;20059;-72
2023/06/19 12:49:19;;;;;;;8.50;5.15;;;;;;;25.69;43.67;101075.25;5052326;28;20488;-72
2023/06/19 12:51:45;;;;;;;8.43;5.45;;;;;;;25.69;44.03;101076.06;5051187;28;20025;-72
2023/06/19 12:54:10;;;;;;;9.85;5.35;;;;;;;25.57;45.05;101064.78;5052210;28;20090;-72
2023/06/19 12:56:36;;;;;;;8.93;4.90;;;;;;;25.72;44.91;101060.75;5051904;28;20395;-72
2023/06/19 12:59:01;;;;;;;7.63;4.97;;;;;;;25.82;44.95;101063.22;5052422;28;20025;-72
2023/06/19 13:01:26;;;;;;;6.55;4.78;;;;;;;25.87;42.79;101065.81;5050038;28;20036;-72
2023/06/19 13:03:52;;;;;;;6.18;4.72;;;;;;;25.86;41.05;101066.16;5052270;28;20044;-72
2023/06/19 13:06:19;;;;;;;6.70;4.30;;;;;;;26.24;42.50;101060.84;5051875;28;20096;-72
2023/06/19 13:08:45;;;;;;;5.95;4.82;;;;;;;26.26;40.87;101060.50;5050984;28;20275;-72
2023/06/19 13:11:10;;;;;;;7.28;4.65;;;;;;;26.64;43.24;101048.72;5052133;28;20041;-72
2023/06/19 13:13:35;;;;;;;6.10;4.90;;;;;;;26.54;42.15;101055.41;5052303;28;20021;-71
2023/06/19 13:16:00;;;;;;;5.07;4.57;;;;;;;26.73;42.58;101063.41;5052166;28;20183;-72
2023/06/19 13:18:26;;;;;;;8.18;4.70;;;;;;;26.86;40.87;101067.97;5052092;28;20263;-72
2023/06/19 13:20:51;;;;;;;9.65;4.70;;;;;;;27.11;40.92;101061.84;5052218;28;20057;-72
2023/06/19 13:23:16;;;;;;;7.07;4.90;;;;;;;27.20;39.24;101059.84;5051925;28;20029;-72
2023/06/19 13:25:42;;;;;;;7.38;4.28;;;;;;;27.21;38.40;101050.38;5052085;28;20664;-70
2023/06/19 13:28:07;;;;;;;7.63;4.82;;;;;;;27.16;38.57;101067.19;5052091;28;20025;-72
2023/06/19 13:30:32;;;;;;;5.10;4.40;;;;;;;27.01;36.68;101063.84;5051854;28;20036;-72
2023/06/19 13:32:57;;;;;;;7.03;4.45;;;;;;;26.84;35.96;101061.94;5052102;28;20036;-71
2023/06/19 13:35:23;;;;;;;5.40;4.00;;;;;;;26.95;36.18;101059.63;5051785;28;20491;-72
2023/06/19 13:37:48;;;;;;;4.90;3.92;;;;;;;26.97;36.03;101059.28;5052316;28;20309;-72
2023/06/19 13:40:13;;;;;;;6.38;3.90;;;;;;;27.28;36.90;101056.22;5051545;28;20033;-71
2023/06/19 13:42:38;;;;;;;6.68;4.07;;;;;;;27.51;37.22;101054.00;5053959;28;20453;-71
2023/06/19 13:45:04;;;;;;;4.63;3.90;;;;;;;27.57;36.80;101051.84;5055876;28;20029;-72
2023/06/19 13:47:30;;;;;;;5.32;4.10;;;;;;;27.87;36.78;101043.47;5055534;28;20621;-71
2023/06/19 13:49:56;;;;;;;7.10;4.30;;;;;;;27.99;36.01;101043.59;5055714;28;20046;-72
2023/06/19 13:52:22;;;;;;;5.75;4.05;;;;;;;28.18;35.95;101045.06;5055125;28;20480;-71
2023/06/19 13:54:47;;;;;;;6.28;4.38;;;;;;;27.79;37.00;101044.34;5055433;28;20067;-71
2023/06/19 13:57:13;;;;;;;8.85;4.80;;;;;;;27.63;37.65;101044.09;5053925;28;20427;-71
2023/06/19 13:59:38;;;;;;;7.68;4.90;;;;;;;27.48;37.36;101039.94;5055547;28;20029;-71
2023/06/19 14:02:03;;;;;;;7.75;4.72;;;;;;;27.79;37.41;101047.13;5053034;28;20460;-71
2023/06/19 14:04:29;;;;;;;5.32;4.20;;;;;;;27.79;37.76;101042.38;5055205;28;20060;-71
2023/06/19 14:06:55;;;;;;;6.50;4.50;;;;;;;27.69;37.07;101042.75;5055659;28;20029;-71
2023/06/19 14:09:21;;;;;;;7.53;4.40;;;;;;;27.83;37.04;101042.53;5055051;28;20267;-71
2023/06/19 14:11:46;;;;;;;6.70;4.30;;;;;;;27.79;37.85;101042.38;5055310;28;20037;-72
2023/06/19 14:14:11;;;;;;;5.55;4.65;;;;;;;27.81;37.28;101039.25;5055340;28;20279;-72
2023/06/19 14:16:36;;;;;;;8.02;4.68;;;;;;;28.00;37.23;101039.63;5054657;28;20061;-71
2023/06/19 14:19:02;;;;;;;4.80;4.25;;;;;;;27.81;36.71;101030.91;5054896;28;20439;-72
2023/06/19 14:21:27;;;;;;;5.53;4.10;;;;;;;27.89;36.04;101030.03;5054768;28;20039;-71
2023/06/19 14:23:53;;;;;;;7.85;4.28;;;;;;;28.07;36.89;101025.19;5055132;28;20441;-71
2023/06/19 14:26:18;;;;;;;6.35;4.00;;;;;;;28.20;35.97;101028.84;5054725;28;20361;-72
2023/06/19 14:28:43;;;;;;;4.93;4.30;;;;;;;28.07;35.71;101037.13;5055008;28;20043;-71
2023/06/19 14:31:08;;;;;;;6.37;4.47;;;;;;;28.09;36.36;101034.00;5054965;28;20029;-72
2023/06/19 14:33:35;;;;;;;7.90;4.60;;;;;;;27.99;35.89;101023.28;5054998;28;20341;-72
2023/06/19 14:36:02;;;;;;;5.57;4.47;;;;;;;27.96;35.58;101035.06;5054767;28;20295;-72
2023/06/19 14:38:31;;;;;;;6.18;4.22;;;;;;;28.05;35.63;101025.53;5054238;28;20436;-72
2023/06/19 14:40:57;;;;;;;5.05;4.18;;;;;;;28.10;35.25;101027.28;5054744;28;20029;-72
2023/06/19 14:43:23;;;;;;;5.90;4.28;;;;;;;28.00;35.42;101016.56;5054490;28;20036;-72
2023/06/19 14:45:48;;;;;;;11.55;4.78;;;;;;;27.99;35.60;101012.16;5054674;28;20392;-72
2023/06/19 14:48:13;;;;;;;9.35;4.40;;;;;;;28.02;36.21;101011.47;5054614;28;20031;-72
2023/06/19 14:50:39;;;;;;;7.97;4.50;;;;;;;28.03;35.52;101010.31;5054585;28;20040;-72
2023/06/19 14:53:04;;;;;;;6.80;4.57;;;;;;;28.16;35.37;101006.44;5054142;28;20029;-71
2023/06/19 14:55:29;;;;;;;9.88;4.45;;;;;;;28.32;34.81;101009.41;5054236;28;20041;-72
2023/06/19 14:57:55;;;;;;;10.25;4.45;;;;;;;28.57;35.41;101012.28;5054427;28;20072;-72
2023/06/19 15:00:20;;;;;;;7.97;4.22;;;;;;;28.66;34.25;101010.25;5054498;28;20083;-73
2023/06/19 15:02:45;;;;;;;8.77;4.30;;;;;;;28.58;34.26;101013.88;5052262;28;20082;-73
2023/06/19 15:05:10;;;;;;;7.47;4.40;;;;;;;28.43;34.45;101021.75;5054381;28;20729;-73
2023/06/19 15:07:36;;;;;;;7.35;3.90;;;;;;;28.60;34.55;101019.97;5053879;28;20450;-73
2023/06/19 15:10:01;;;;;;;6.95;3.67;;;;;;;28.78;33.91;101021.41;5054242;28;20104;-73
2023/06/19 15:12:26;;;;;;;8.90;4.45;;;;;;;28.79;33.31;101023.03;5053923;28;20103;-73
2023/06/19 15:14:52;;;;;;;6.15;3.58;;;;;;;28.95;33.38;101019.56;5052827;28;20056;-73
2023/06/19 15:17:17;;;;;;;6.70;3.90;;;;;;;29.23;34.74;101016.13;5053836;28;20032;-74
2023/06/19 15:19:42;;;;;;;5.38;4.00;;;;;;;29.10;33.41;101015.28;5054072;28;20341;-73
2023/06/19 15:22:08;;;;;;;5.87;3.77;;;;;;;29.29;33.21;101012.75;5052727;28;20063;-71
2023/06/19 15:24:33;;;;;;;7.03;4.00;;;;;;;29.63;35.08;101018.97;5052433;28;20313;-71
2023/06/19 15:27:00;;;;;;;6.07;3.88;;;;;;;29.76;33.33;101016.16;5053773;28;20434;-71
2023/06/19 15:29:25;;;;;;;4.90;3.63;;;;;;;29.89;34.03;101003.03;5053325;28;20052;-71
2023/06/19 15:31:51;;;;;;;8.43;4.13;;;;;;;29.63;33.66;100995.88;5053783;28;20506;-71
2023/06/19 15:34:16;;;;;;;7.00;4.07;;;;;;;29.65;33.17;100997.16;5053422;28;20468;-71
2023/06/19 15:36:41;;;;;;;6.23;3.90;;;;;;;29.79;32.29;101001.53;5053142;28;20295;-72
2023/06/19 15:39:06;;;;;;;8.65;4.35;;;;;;;29.78;33.32;101000.72;5053974;28;20357;-71
2023/06/19 15:41:32;;;;;;;7.30;4.00;;;;;;;30.11;32.77;100990.53;5053458;28;20037;-72
2023/06/19 15:43:57;;;;;;;8.37;3.83;;;;;;;29.77;33.17;100992.69;5053404;28;20029;-71
2023/06/19 15:46:23;;;;;;;6.60;3.85;;;;;;;29.62;33.27;100997.88;5053155;28;20392;-71
2023/06/19 15:48:48;;;;;;;7.07;3.65;;;;;;;29.94;31.90;100997.19;5053448;28;20036;-71
2023/06/19 15:51:14;;;;;;;8.45;4.00;;;;;;;29.99;32.33;100994.97;5053133;28;20441;-71
2023/06/19 15:53:40;;;;;;;8.57;3.90;;;;;;;30.08;32.36;100994.84;5053011;28;20036;-72
2023/06/19 15:56:05;;;;;;;7.67;3.90;;;;;;;30.18;31.54;100994.34;5053063;28;20053;-71
2023/06/19 15:58:31;;;;;;;4.07;3.70;;;;;;;29.91;32.18;100992.34;5052858;28;20290;-71
2023/06/19 16:00:56;;;;;;;6.32;4.10;;;;;;;30.12;31.89;100992.13;5049319;28;20035;-72
2023/06/19 16:03:21;;;;;;;6.43;3.87;;;;;;;30.10;31.45;100986.09;5052963;28;20555;-73
2023/06/19 16:05:50;;;;;;;6.63;3.83;;;;;;;29.68;31.91;100996.44;5052551;28;20291;-71
